G.m. Penman — CFN7245 — position and weather

sailwx.info

Track history (hours):
 
Tides and Currents Weather Stations Pressure Air Temp Water Temp Dewpoint Dewpoint Depression Visibility Wind Speed Wind Dir Waves Ship Positions

G.m. Penman

Last reported at 2017-Nov-09 21:34 UTC. Time now 2017-Nov-23 13:06 UTC.
Position N 49°10' W 123°54'.
Warning: this ship's position is 13 days out of date.

Length 20 m; draft 2 m.

Type: Pollution control. MMSI: 316030416.

Date/timePositionNaut miles runAvg speedWind from/ knotsBaromVisibWave heightAir tempDewpointWater temp
2017-Nov-09 21:34N 49°10' W 123°54'510.6
2017-Nov-09 21:05N 49°08' W 123°48'114.8
2017-Nov-09 21:00N 49°06' W 123°47'917.1
2017-Nov-09 20:30N 48°58' W 123°42'1122.1
2017-Nov-09 20:00N 48°49' W 123°34'9 0.2
2017-Nov-07 20:20N 48°43' W 123°24'618.5
2017-Nov-07 19:59N 48°37' W 123°21'919.0
2017-Nov-07 19:30N 48°29' W 123°16'612.5
2017-Nov-07 19:00N 48°24' W 123°23'2 3.1
2017-Nov-07 18:30N 48°26' W 123°23'0 0.3
2017-Nov-07 18:01N 48°26' W 123°22'1 1.6
2017-Nov-07 17:31N 48°25' W 123°23'1 1.5
2017-Nov-07 17:00N 48°26' W 123°23'0 0.0
2017-Nov-06 20:25N 48°26' W 123°23'  
2017-Nov-03 20:23N 48°26' W 123°23'1 2.4
2017-Nov-03 20:00N 48°25' W 123°24'611.7
2017-Nov-03 19:31N 48°28' W 123°16'1323.6
2017-Nov-03 18:57N 48°41' W 123°21'1110.1
2017-Nov-03 17:53N 48°48' W 123°34'715.7
2017-Nov-03 17:26N 48°54' W 123°39'716.9
2017-Nov-03 17:00N 49°01' W 123°43'1111.5
2017-Nov-03 16:03N 49°10' W 123°53'1 9.3
2017-Nov-03 15:58N 49°10' W 123°54'1 0.1
2017-Nov-02 20:33N 49°10' W 123°56'0 0.0
2017-Nov-02 20:30N 49°10' W 123°56'0 0.0
2017-Nov-02 20:00N 49°10' W 123°56'0 0.2
2017-Nov-02 19:30N 49°10' W 123°56'0 0.0
2017-Nov-02 19:00N 49°10' W 123°56'0 0.0
2017-Nov-01 21:10N 49°10' W 123°56'0 0.0
2017-Nov-01 21:00N 49°10' W 123°56'1 1.3
2017-Nov-01 20:30N 49°10' W 123°55'1 2.1
2017-Nov-01 20:00N 49°11' W 123°54'2 4.9
2017-Nov-01 19:30N 49°12' W 123°57'714.7
2017-Nov-01 19:01N 49°18' W 124°04'1019.4
2017-Nov-01 18:31N 49°23' W 124°17'54 1.2
2017-Oct-30 22:42N 50°02' W 125°15'0 0.2
2017-Oct-30 22:31N 50°02' W 125°15'815.3
2017-Oct-30 22:00N 49°56' W 125°07'  
Track history (hours):
 
Tides and Currents Weather Stations Pressure Air Temp Water Temp Dewpoint Dewpoint Depression Visibility Wind Speed Wind Dir Waves Ship Positions

G.m. Penman

Last reported at 2017-Nov-09 21:34 UTC. Time now 2017-Nov-23 13:06 UTC.
Position N 49°10' W 123°54'.
Warning: this ship's position is 13 days out of date.

Length 20 m; draft 2 m.

Type: Pollution control. MMSI: 316030416.

Date/timePositionNaut miles runAvg speedWind from/ knotsBaromVisibWave heightAir tempDewpointWater temp
2017-Nov-09 21:34N 49°10' W 123°54'510.6
2017-Nov-09 21:05N 49°08' W 123°48'114.8
2017-Nov-09 21:00N 49°06' W 123°47'917.1
2017-Nov-09 20:30N 48°58' W 123°42'1122.1
2017-Nov-09 20:00N 48°49' W 123°34'9 0.2
2017-Nov-07 20:20N 48°43' W 123°24'618.5
2017-Nov-07 19:59N 48°37' W 123°21'919.0
2017-Nov-07 19:30N 48°29' W 123°16'612.5
2017-Nov-07 19:00N 48°24' W 123°23'2 3.1
2017-Nov-07 18:30N 48°26' W 123°23'0 0.3
2017-Nov-07 18:01N 48°26' W 123°22'1 1.6
2017-Nov-07 17:31N 48°25' W 123°23'1 1.5
2017-Nov-07 17:00N 48°26' W 123°23'0 0.0
2017-Nov-06 20:25N 48°26' W 123°23'  
2017-Nov-03 20:23N 48°26' W 123°23'1 2.4
2017-Nov-03 20:00N 48°25' W 123°24'611.7
2017-Nov-03 19:31N 48°28' W 123°16'1323.6
2017-Nov-03 18:57N 48°41' W 123°21'1110.1
2017-Nov-03 17:53N 48°48' W 123°34'715.7
2017-Nov-03 17:26N 48°54' W 123°39'716.9
2017-Nov-03 17:00N 49°01' W 123°43'1111.5
2017-Nov-03 16:03N 49°10' W 123°53'1 9.3
2017-Nov-03 15:58N 49°10' W 123°54'1 0.1
2017-Nov-02 20:33N 49°10' W 123°56'0 0.0
2017-Nov-02 20:30N 49°10' W 123°56'0 0.0
2017-Nov-02 20:00N 49°10' W 123°56'0 0.2
2017-Nov-02 19:30N 49°10' W 123°56'0 0.0
2017-Nov-02 19:00N 49°10' W 123°56'0 0.0
2017-Nov-01 21:10N 49°10' W 123°56'0 0.0
2017-Nov-01 21:00N 49°10' W 123°56'1 1.3
2017-Nov-01 20:30N 49°10' W 123°55'1 2.1
2017-Nov-01 20:00N 49°11' W 123°54'2 4.9
2017-Nov-01 19:30N 49°12' W 123°57'714.7
2017-Nov-01 19:01N 49°18' W 124°04'1019.4
2017-Nov-01 18:31N 49°23' W 124°17'54 1.2
2017-Oct-30 22:42N 50°02' W 125°15'0 0.2
2017-Oct-30 22:31N 50°02' W 125°15'815.3
2017-Oct-30 22:00N 49°56' W 125°07'  

Dump ship's entire track history